createdAt,value
2018-11-27T00:00:01.618Z,16.93
2018-11-27T00:01:06.092Z,24.00
2018-11-27T00:02:10.380Z,104.65
2018-11-27T00:03:14.604Z,150.27
2018-11-27T00:04:18.766Z,107.37
2018-11-27T00:05:22.979Z,153.07
2018-11-27T00:06:27.214Z,90.92
2018-11-27T00:07:31.456Z,40.03
2018-11-27T00:08:35.875Z,28.45
2018-11-27T00:09:40.077Z,18.23
2018-11-27T00:10:44.282Z,13.93
2018-11-27T00:11:48.505Z,15.40
2018-11-27T00:12:52.589Z,13.28
2018-11-27T00:13:56.882Z,13.18
2018-11-27T00:15:01.200Z,13.20
2018-11-27T00:16:05.430Z,12.35
2018-11-27T00:17:09.636Z,11.50
2018-11-27T00:18:14.789Z,10.38
2018-11-27T00:19:25.533Z,10.55
2018-11-27T00:20:29.667Z,9.78
2018-11-27T00:21:33.890Z,9.68
2018-11-27T00:22:38.285Z,9.80
2018-11-27T00:23:42.433Z,10.32
2018-11-27T00:24:46.664Z,10.20
2018-11-27T00:25:50.839Z,9.18
2018-11-27T00:26:54.865Z,9.25
2018-11-27T00:27:58.956Z,9.75
2018-11-27T00:29:03.188Z,10.20
2018-11-27T00:30:16.243Z,9.73
2018-11-27T00:31:20.636Z,9.83
2018-11-27T00:32:24.887Z,10.30
2018-11-27T00:33:28.931Z,10.38
2018-11-27T00:34:33.110Z,7.95
2018-11-27T00:35:37.384Z,8.55
2018-11-27T00:36:41.542Z,7.47
2018-11-27T00:37:45.584Z,8.65
2018-11-27T00:38:49.672Z,8.13
2018-11-27T00:39:53.882Z,7.22
2018-11-27T00:40:58.217Z,7.95
2018-11-27T00:42:02.469Z,7.08
2018-11-27T00:43:06.732Z,7.80
2018-11-27T00:44:11.217Z,7.47
2018-11-27T00:45:16.425Z,7.37
2018-11-27T00:46:20.580Z,7.97
2018-11-27T00:47:24.824Z,7.55
2018-11-27T00:48:28.922Z,7.92
2018-11-27T00:49:33.137Z,7.78
2018-11-27T00:50:37.914Z,8.40
2018-11-27T00:51:43.108Z,8.13
2018-11-27T00:52:47.205Z,8.28
2018-11-27T00:53:51.346Z,7.65
2018-11-27T00:54:58.687Z,7.95
2018-11-27T00:55:59.866Z,7.33
2018-11-27T00:57:04.076Z,6.58
2018-11-27T00:58:08.386Z,7.35
2018-11-27T00:59:12.526Z,6.45
2018-11-27T01:00:19.564Z,6.62
2018-11-27T01:01:23.671Z,6.67
2018-11-27T01:02:27.871Z,6.53
2018-11-27T01:03:32.089Z,6.50
2018-11-27T01:04:36.126Z,6.20
2018-11-27T01:05:40.461Z,6.90
2018-11-27T01:06:44.842Z,6.87
2018-11-27T01:07:49.185Z,6.92
2018-11-27T01:08:53.700Z,6.75
2018-11-27T01:09:57.789Z,6.85
2018-11-27T01:11:02.106Z,6.80
2018-11-27T01:12:06.262Z,6.75
2018-11-27T01:13:10.485Z,7.12
2018-11-27T01:14:14.645Z,6.97
2018-11-27T01:15:18.865Z,7.12
2018-11-27T01:16:23.005Z,8.78
2018-11-27T01:17:27.104Z,8.63
2018-11-27T01:18:31.248Z,7.97
2018-11-27T01:19:35.387Z,7.55
2018-11-27T01:20:40.460Z,7.17
2018-11-27T01:21:44.701Z,6.33
2018-11-27T01:22:48.974Z,6.12
2018-11-27T01:23:53.081Z,5.90
2018-11-27T01:25:03.797Z,6.45
2018-11-27T01:26:07.941Z,5.78
2018-11-27T01:27:12.113Z,5.10
2018-11-27T01:28:16.195Z,5.45
2018-11-27T01:29:20.345Z,5.03
2018-11-27T01:30:24.725Z,4.22
2018-11-27T01:31:28.899Z,4.33
2018-11-27T01:32:32.957Z,4.90
2018-11-27T01:33:37.059Z,4.78
2018-11-27T01:34:42.132Z,4.10
2018-11-27T01:35:46.170Z,4.17
2018-11-27T01:36:50.250Z,4.25
2018-11-27T01:37:55.241Z,4.17
2018-11-27T01:38:59.374Z,4.20
2018-11-27T01:40:03.576Z,4.25
2018-11-27T01:41:07.981Z,3.87
2018-11-27T01:42:12.049Z,4.70
2018-11-27T01:43:16.292Z,4.17
2018-11-27T01:44:20.286Z,4.37
2018-11-27T01:45:25.013Z,4.30
2018-11-27T01:46:29.216Z,4.45
2018-11-27T01:47:33.366Z,4.28
2018-11-27T01:48:37.870Z,4.12
2018-11-27T01:49:41.964Z,4.55
2018-11-27T01:50:46.168Z,4.33
2018-11-27T01:51:50.281Z,4.70
2018-11-27T01:52:54.388Z,4.67
2018-11-27T01:53:58.532Z,4.55
2018-11-27T01:55:02.736Z,4.65
2018-11-27T01:56:07.235Z,4.35
2018-11-27T01:57:11.409Z,4.80
2018-11-27T01:58:15.572Z,4.55
2018-11-27T01:59:19.827Z,4.53
2018-11-27T02:00:29.437Z,4.05
2018-11-27T02:01:33.570Z,4.17
2018-11-27T02:02:37.908Z,5.03
2018-11-27T02:03:41.921Z,4.50
2018-11-27T02:04:47.015Z,3.75
2018-11-27T02:05:51.173Z,4.08
2018-11-27T02:06:55.344Z,4.60
2018-11-27T02:08:00.595Z,3.60
2018-11-27T02:09:07.757Z,3.75
2018-11-27T02:10:12.930Z,3.95
2018-11-27T02:11:17.007Z,4.15
2018-11-27T02:12:21.232Z,4.00
2018-11-27T02:13:25.233Z,4.08
2018-11-27T02:14:29.269Z,3.37
2018-11-27T02:15:33.542Z,4.50
2018-11-27T02:16:37.696Z,3.85
2018-11-27T02:17:41.828Z,4.08
2018-11-27T02:18:45.968Z,4.12
2018-11-27T02:19:50.021Z,3.98
2018-11-27T02:20:54.305Z,3.90
2018-11-27T02:21:58.501Z,4.37
2018-11-27T02:23:02.736Z,4.70
2018-11-27T02:24:07.396Z,4.00
2018-11-27T02:25:25.100Z,5.08
2018-11-27T02:26:29.284Z,4.40
2018-11-27T02:27:33.433Z,4.05
2018-11-27T02:28:37.548Z,5.00
2018-11-27T02:29:41.613Z,5.53
2018-11-27T02:30:47.457Z,5.15
2018-11-27T02:31:51.556Z,4.15
2018-11-27T02:32:55.777Z,4.28
2018-11-27T02:33:59.932Z,4.33
2018-11-27T02:35:04.050Z,4.47
2018-11-27T02:36:08.102Z,4.22
2018-11-27T02:37:12.261Z,4.10
2018-11-27T02:38:16.313Z,4.83
2018-11-27T02:39:21.283Z,4.25
2018-11-27T02:40:25.540Z,5.55
2018-11-27T02:41:29.684Z,5.25
2018-11-27T02:42:33.761Z,5.50
2018-11-27T02:43:37.810Z,4.90
2018-11-27T02:44:42.045Z,4.87
2018-11-27T02:45:46.206Z,5.08
2018-11-27T02:46:50.332Z,5.47
2018-11-27T02:47:55.314Z,4.97
2018-11-27T02:48:59.278Z,4.87
2018-11-27T02:50:03.778Z,5.22
2018-11-27T02:51:07.901Z,4.90
2018-11-27T02:52:11.974Z,5.12
2018-11-27T02:53:16.887Z,4.87
2018-11-27T02:54:21.002Z,4.60
2018-11-27T02:55:26.630Z,4.42
2018-11-27T02:56:30.729Z,4.53
2018-11-27T02:57:34.985Z,4.40
2018-11-27T02:58:39.207Z,3.87
2018-11-27T02:59:43.372Z,4.47
2018-11-27T03:00:47.479Z,4.22
2018-11-27T03:01:51.557Z,4.20
2018-11-27T03:02:55.885Z,4.35
2018-11-27T03:04:00.218Z,4.35
2018-11-27T03:05:04.666Z,4.20
2018-11-27T03:06:08.776Z,4.20
2018-11-27T03:07:12.884Z,4.17
2018-11-27T03:08:16.964Z,4.75
2018-11-27T03:09:21.117Z,4.47
2018-11-27T03:10:25.200Z,3.77
2018-11-27T03:11:29.229Z,4.12
2018-11-27T03:12:33.239Z,4.12
2018-11-27T03:13:37.411Z,4.25
2018-11-27T03:14:41.666Z,4.08
2018-11-27T03:15:45.993Z,4.22
2018-11-27T03:16:50.065Z,4.15
2018-11-27T03:17:55.469Z,4.70
2018-11-27T03:18:59.685Z,4.15
2018-11-27T03:20:03.909Z,4.40
2018-11-27T03:21:08.008Z,4.12
2018-11-27T03:22:12.191Z,4.03
2018-11-27T03:23:16.368Z,3.83
2018-11-27T03:24:20.485Z,5.10
2018-11-27T03:25:24.853Z,4.85
2018-11-27T03:26:28.909Z,4.92
2018-11-27T03:27:32.981Z,4.37
2018-11-27T03:28:36.998Z,4.55
2018-11-27T03:29:41.089Z,5.22
2018-11-27T03:30:45.199Z,5.17
2018-11-27T03:31:49.298Z,5.70
2018-11-27T03:32:53.349Z,6.05
2018-11-27T03:33:58.535Z,5.80
2018-11-27T03:35:02.550Z,6.28
2018-11-27T03:36:07.021Z,5.58
2018-11-27T03:37:11.093Z,5.00
2018-11-27T03:38:15.183Z,5.87
2018-11-27T03:39:19.412Z,5.60
2018-11-27T03:40:25.656Z,6.15
2018-11-27T03:41:30.868Z,5.95
2018-11-27T03:42:35.614Z,5.40
2018-11-27T03:43:39.681Z,5.25
2018-11-27T03:44:43.695Z,5.22
2018-11-27T03:45:47.788Z,5.45
2018-11-27T03:46:52.013Z,5.87
2018-11-27T03:47:56.158Z,5.28
2018-11-27T03:49:00.201Z,6.60
2018-11-27T03:50:07.030Z,5.70
2018-11-27T03:51:11.232Z,5.37
2018-11-27T03:52:15.451Z,5.33
2018-11-27T03:53:19.526Z,5.75
2018-11-27T03:54:23.629Z,4.55
2018-11-27T03:55:27.722Z,3.80
2018-11-27T03:56:31.824Z,4.33
2018-11-27T03:57:35.972Z,4.05
2018-11-27T03:58:40.645Z,3.37
2018-11-27T03:59:44.741Z,3.75
2018-11-27T04:00:48.898Z,3.85
2018-11-27T04:01:53.073Z,3.83
2018-11-27T04:03:02.924Z,4.60
2018-11-27T04:04:10.028Z,3.77
2018-11-27T04:05:12.069Z,4.22
2018-11-27T04:06:16.224Z,4.45
2018-11-27T04:07:20.575Z,4.33
2018-11-27T04:08:24.784Z,4.35
2018-11-27T04:09:28.868Z,4.60
2018-11-27T04:10:33.011Z,4.50
2018-11-27T04:11:37.163Z,3.77
2018-11-27T04:12:41.342Z,4.15
2018-11-27T04:13:45.521Z,4.15
2018-11-27T04:14:49.564Z,5.25
2018-11-27T04:15:53.722Z,5.30
2018-11-27T04:16:57.938Z,4.45
2018-11-27T04:18:02.091Z,5.40
2018-11-27T04:19:06.533Z,5.58
2018-11-27T04:20:11.688Z,5.30
2018-11-27T04:21:15.981Z,5.00
2018-11-27T04:22:20.114Z,4.85
2018-11-27T04:23:24.218Z,5.40
2018-11-27T04:24:28.318Z,6.33
2018-11-27T04:25:32.308Z,5.37
2018-11-27T04:26:36.489Z,5.42
2018-11-27T04:27:40.771Z,5.20
2018-11-27T04:28:44.870Z,5.37
2018-11-27T04:29:49.000Z,5.10
2018-11-27T04:30:54.032Z,5.20
2018-11-27T04:31:58.117Z,5.75
2018-11-27T04:33:02.149Z,5.62
2018-11-27T04:34:06.509Z,4.80
2018-11-27T04:35:12.114Z,5.40
2018-11-27T04:36:16.225Z,5.25
2018-11-27T04:37:20.224Z,5.28
2018-11-27T04:38:24.598Z,5.53
2018-11-27T04:39:28.726Z,5.83
2018-11-27T04:40:32.932Z,5.58
2018-11-27T04:41:37.082Z,4.50
2018-11-27T04:42:41.245Z,4.10
2018-11-27T04:43:46.114Z,3.95
2018-11-27T04:44:50.288Z,4.00
2018-11-27T04:45:57.368Z,3.70
2018-11-27T04:47:01.504Z,3.80
2018-11-27T04:48:06.537Z,3.90
2018-11-27T04:49:10.617Z,3.83
2018-11-27T04:50:15.751Z,3.22
2018-11-27T04:51:19.937Z,4.22
2018-11-27T04:52:24.060Z,4.50
2018-11-27T04:53:31.072Z,3.92
2018-11-27T04:54:35.219Z,4.53
2018-11-27T04:55:39.521Z,3.90
2018-11-27T04:56:43.735Z,4.83
2018-11-27T04:57:48.846Z,22.52
2018-11-27T04:58:53.049Z,21.30
2018-11-27T04:59:57.185Z,10.35
2018-11-27T05:01:01.216Z,11.35
2018-11-27T05:02:05.577Z,13.83
2018-11-27T05:03:10.429Z,7.55
2018-11-27T05:04:14.522Z,5.50
2018-11-27T05:05:25.225Z,4.85
2018-11-27T05:06:29.373Z,3.98
2018-11-27T05:07:33.494Z,4.95
2018-11-27T05:08:38.405Z,5.80
2018-11-27T05:09:42.566Z,6.25
2018-11-27T05:10:46.586Z,6.25
2018-11-27T05:11:50.842Z,5.15
2018-11-27T05:12:55.110Z,4.47
2018-11-27T05:13:59.247Z,5.05
2018-11-27T05:15:03.479Z,5.22
2018-11-27T05:16:10.362Z,5.30
2018-11-27T05:17:14.534Z,5.20
2018-11-27T05:18:19.965Z,5.55
2018-11-27T05:19:24.121Z,4.87
2018-11-27T05:20:28.237Z,6.75
2018-11-27T05:21:32.420Z,5.50
2018-11-27T05:22:36.757Z,5.65
2018-11-27T05:23:41.018Z,5.92
2018-11-27T05:24:45.273Z,5.60
2018-11-27T05:25:49.596Z,5.62
2018-11-27T05:26:53.673Z,5.28
2018-11-27T05:27:59.127Z,5.78
2018-11-27T05:29:03.392Z,5.67
2018-11-27T05:30:11.833Z,5.30
2018-11-27T05:31:16.099Z,5.58
2018-11-27T05:32:20.897Z,5.78
2018-11-27T05:33:25.151Z,4.67
2018-11-27T05:34:29.370Z,5.20
2018-11-27T05:35:33.481Z,5.05
2018-11-27T05:36:37.665Z,5.87
2018-11-27T05:37:42.852Z,5.92
2018-11-27T05:38:47.011Z,5.78
2018-11-27T05:39:51.301Z,5.70
2018-11-27T05:40:55.551Z,6.60
2018-11-27T05:41:59.685Z,5.60
2018-11-27T05:43:08.623Z,6.28
2018-11-27T05:44:12.900Z,6.08
2018-11-27T05:45:18.088Z,6.10
2018-11-27T05:46:22.221Z,6.22
2018-11-27T05:47:26.654Z,4.90
2018-11-27T05:48:31.041Z,5.22
2018-11-27T05:49:38.973Z,6.12
2018-11-27T05:50:43.482Z,5.62
2018-11-27T05:51:47.666Z,5.37
2018-11-27T05:52:51.898Z,5.60
2018-11-27T05:54:02.660Z,5.20
2018-11-27T05:55:08.445Z,5.10
2018-11-27T05:56:12.654Z,5.03
2018-11-27T05:57:16.760Z,4.87
2018-11-27T05:58:21.048Z,5.45
2018-11-27T05:59:25.236Z,5.67
2018-11-27T06:00:30.461Z,5.15
2018-11-27T06:01:34.565Z,5.80
2018-11-27T06:02:39.406Z,5.47
2018-11-27T06:03:43.520Z,6.55
2018-11-27T06:04:47.923Z,6.20
2018-11-27T06:05:52.056Z,6.47
2018-11-27T06:06:56.345Z,5.05
2018-11-27T06:08:00.669Z,4.90
2018-11-27T06:09:07.813Z,5.30
2018-11-27T06:10:13.312Z,7.72
2018-11-27T06:11:17.570Z,43.55
2018-11-27T06:12:21.730Z,60.75
2018-11-27T06:13:27.041Z,84.62
2018-11-27T06:14:31.515Z,54.15
2018-11-27T06:15:35.826Z,32.00
2018-11-27T06:16:40.142Z,7.10
2018-11-27T06:17:44.564Z,12.50
2018-11-27T06:18:48.854Z,7.95
2018-11-27T06:19:53.162Z,8.53
2018-11-27T06:20:57.965Z,15.83
2018-11-27T06:22:02.170Z,26.95
2018-11-27T06:23:07.161Z,23.62
2018-11-27T06:24:11.744Z,7.47
2018-11-27T06:25:17.355Z,6.92
2018-11-27T06:26:21.585Z,7.37
2018-11-27T06:27:26.914Z,7.97
2018-11-27T06:28:31.217Z,13.03
2018-11-27T06:29:35.547Z,14.28
2018-11-27T06:30:39.701Z,26.42
2018-11-27T06:31:44.001Z,16.93
2018-11-27T06:32:48.293Z,24.98
2018-11-27T06:33:52.898Z,21.02
2018-11-27T06:34:57.461Z,28.62
2018-11-27T06:36:01.704Z,21.00
2018-11-27T06:37:06.641Z,14.70
2018-11-27T06:38:11.490Z,41.40
2018-11-27T06:39:15.809Z,43.28
2018-11-27T06:40:23.116Z,25.70
2018-11-27T06:41:27.353Z,20.62
2018-11-27T06:42:31.504Z,22.37
2018-11-27T06:43:35.778Z,9.15
2018-11-27T06:44:40.260Z,9.23
2018-11-27T06:45:44.880Z,12.60
2018-11-27T06:46:49.221Z,15.93
2018-11-27T06:47:54.127Z,10.48
2018-11-27T06:48:59.423Z,14.38
2018-11-27T06:50:03.841Z,24.23
2018-11-27T06:51:08.093Z,34.75
2018-11-27T06:52:12.328Z,37.75
2018-11-27T06:53:16.572Z,28.80
2018-11-27T06:54:20.818Z,32.67
2018-11-27T06:55:25.583Z,17.85
2018-11-27T06:56:29.758Z,14.90
2018-11-27T06:57:34.150Z,14.68
2018-11-27T06:58:39.139Z,20.57
2018-11-27T06:59:43.522Z,19.42
2018-11-27T07:00:47.845Z,20.65
2018-11-27T07:01:52.160Z,19.40
2018-11-27T07:02:57.210Z,13.13
2018-11-27T07:04:01.321Z,15.90
2018-11-27T07:05:05.617Z,11.68
2018-11-27T07:06:10.014Z,12.13
2018-11-27T07:07:14.055Z,10.88
2018-11-27T07:08:18.733Z,11.65
2018-11-27T07:09:22.950Z,16.90
2018-11-27T07:10:34.277Z,12.47
2018-11-27T07:11:39.529Z,9.95
2018-11-27T07:12:50.879Z,14.83
2018-11-27T07:13:54.973Z,9.10
2018-11-27T07:14:59.228Z,8.80
2018-11-27T07:16:03.288Z,8.70
2018-11-27T07:17:07.623Z,8.48
2018-11-27T07:18:11.786Z,8.45
2018-11-27T07:19:15.862Z,8.95
2018-11-27T07:20:19.985Z,8.53
2018-11-27T07:21:24.974Z,8.60
2018-11-27T07:22:29.247Z,8.18
2018-11-27T07:23:33.274Z,9.95
2018-11-27T07:24:37.348Z,16.45
2018-11-27T07:25:41.705Z,13.28
2018-11-27T07:26:45.885Z,14.25
2018-11-27T07:27:50.982Z,13.60
2018-11-27T07:28:55.057Z,21.33
2018-11-27T07:29:59.304Z,20.20
2018-11-27T07:31:03.529Z,17.52
2018-11-27T07:32:09.585Z,15.58
2018-11-27T07:33:12.101Z,13.88
2018-11-27T07:34:16.169Z,17.15
2018-11-27T07:35:20.611Z,15.88
2018-11-27T07:36:24.881Z,25.82
2018-11-27T07:37:29.182Z,23.27
2018-11-27T07:38:33.233Z,17.65
2018-11-27T07:39:37.334Z,15.65
2018-11-27T07:40:41.549Z,17.15
2018-11-27T07:41:45.716Z,19.55
2018-11-27T07:42:51.030Z,13.68
2018-11-27T07:43:55.221Z,11.63
2018-11-27T07:44:59.349Z,11.10
2018-11-27T07:46:03.603Z,12.25
2018-11-27T07:47:08.778Z,12.80
2018-11-27T07:48:13.062Z,10.65
2018-11-27T07:49:17.189Z,10.78
2018-11-27T07:50:21.377Z,12.03
2018-11-27T07:51:25.521Z,10.82
2018-11-27T07:52:29.885Z,12.30
2018-11-27T07:53:33.952Z,9.40
2018-11-27T07:54:38.273Z,10.32
2018-11-27T07:55:42.595Z,12.05
2018-11-27T07:56:46.650Z,11.03
2018-11-27T07:57:51.453Z,13.45
2018-11-27T07:58:55.630Z,12.65
2018-11-27T07:59:59.906Z,9.85
2018-11-27T08:01:04.105Z,10.78
2018-11-27T08:02:08.373Z,9.53
2018-11-27T08:03:12.606Z,9.23
2018-11-27T08:04:16.794Z,9.95
2018-11-27T08:05:23.285Z,10.18
2018-11-27T08:06:27.522Z,14.33
2018-11-27T08:07:31.733Z,10.20
2018-11-27T08:08:35.983Z,10.00
2018-11-27T08:09:40.067Z,9.30
2018-11-27T08:10:45.125Z,8.83
2018-11-27T08:11:49.279Z,10.15
2018-11-27T08:12:53.642Z,9.13
2018-11-27T08:13:57.986Z,9.88
2018-11-27T08:15:02.072Z,8.45
2018-11-27T08:16:06.284Z,8.48
2018-11-27T08:17:10.486Z,8.35
2018-11-27T08:18:14.730Z,9.80
2018-11-27T08:19:18.824Z,9.90
2018-11-27T08:20:37.439Z,9.25
2018-11-27T08:21:41.595Z,7.72
2018-11-27T08:22:45.828Z,6.70
2018-11-27T08:23:50.230Z,7.45
2018-11-27T08:24:54.427Z,7.00
2018-11-27T08:26:00.426Z,6.90
2018-11-27T08:27:04.641Z,7.42
2018-11-27T08:28:09.004Z,7.37
2018-11-27T08:29:13.194Z,6.40
2018-11-27T08:30:20.169Z,6.95
2018-11-27T08:31:24.328Z,6.62
2018-11-27T08:32:28.528Z,6.20
2018-11-27T08:33:32.802Z,6.22
2018-11-27T08:34:36.982Z,6.10
2018-11-27T08:35:42.147Z,6.72
2018-11-27T08:36:46.315Z,6.97
2018-11-27T08:37:52.230Z,6.50
2018-11-27T08:38:56.438Z,6.37
2018-11-27T08:40:01.287Z,5.85
2018-11-27T08:41:05.632Z,6.92
2018-11-27T08:42:09.894Z,6.67
2018-11-27T08:43:14.058Z,6.47
2018-11-27T08:44:18.837Z,6.10
2018-11-27T08:45:24.773Z,6.97
2018-11-27T08:46:28.901Z,6.55
2018-11-27T08:47:32.889Z,5.60
2018-11-27T08:48:37.074Z,6.30
2018-11-27T08:49:41.286Z,5.87
2018-11-27T08:50:45.310Z,5.75
2018-11-27T08:51:50.082Z,4.95
2018-11-27T08:52:55.363Z,5.37
2018-11-27T08:53:59.659Z,5.90
2018-11-27T08:55:03.804Z,5.92
2018-11-27T08:56:08.812Z,5.78
2018-11-27T08:57:13.210Z,6.35
2018-11-27T08:58:22.273Z,5.55
2018-11-27T08:59:26.625Z,6.22
2018-11-27T09:00:30.776Z,6.05
2018-11-27T09:01:35.018Z,5.33
2018-11-27T09:02:39.140Z,5.80
2018-11-27T09:03:46.457Z,6.72
2018-11-27T09:04:47.607Z,5.87
2018-11-27T09:05:51.931Z,5.90
2018-11-27T09:06:56.225Z,7.00
2018-11-27T09:08:00.341Z,5.58
2018-11-27T09:09:07.038Z,5.28
2018-11-27T09:10:15.664Z,5.62
2018-11-27T09:11:19.987Z,5.87
2018-11-27T09:12:24.308Z,5.25
2018-11-27T09:13:31.510Z,5.50
2018-11-27T09:14:39.006Z,5.60
2018-11-27T09:15:47.127Z,4.90
2018-11-27T09:16:54.248Z,5.00
2018-11-27T09:18:05.328Z,4.50
2018-11-27T09:19:11.793Z,4.33
2018-11-27T09:20:19.049Z,3.60
2018-11-27T09:21:25.359Z,3.85
2018-11-27T09:22:30.822Z,3.90
2018-11-27T09:23:37.661Z,3.60
2018-11-27T09:24:44.809Z,3.72
2018-11-27T09:25:52.953Z,2.98
2018-11-27T09:27:00.210Z,2.85
2018-11-27T09:28:06.591Z,2.70
2018-11-27T09:29:13.858Z,2.60
2018-11-27T09:30:27.981Z,2.62
2018-11-27T09:31:37.831Z,2.45
2018-11-27T09:32:46.103Z,2.15
2018-11-27T09:33:53.343Z,2.22
2018-11-27T09:34:59.331Z,2.00
2018-11-27T09:36:07.489Z,2.02
2018-11-27T09:37:13.459Z,2.40
2018-11-27T09:38:21.493Z,2.00
2018-11-27T09:39:25.806Z,1.60
2018-11-27T09:40:29.972Z,1.62
2018-11-27T09:41:34.225Z,1.85
2018-11-27T09:42:38.421Z,1.90
2018-11-27T09:43:42.630Z,1.90
2018-11-27T09:44:46.728Z,2.35
2018-11-27T09:45:51.265Z,2.50
2018-11-27T09:46:55.531Z,2.30
2018-11-27T09:48:00.227Z,2.22
2018-11-27T09:49:04.427Z,1.70
2018-11-27T09:50:12.156Z,2.00
2018-11-27T09:51:16.449Z,2.00
2018-11-27T09:52:21.415Z,1.80
2018-11-27T09:53:25.636Z,1.87
2018-11-27T09:54:30.041Z,2.65
2018-11-27T09:55:34.225Z,2.40
2018-11-27T09:56:38.963Z,2.00
2018-11-27T09:57:43.305Z,3.08
2018-11-27T09:58:47.517Z,3.50
2018-11-27T09:59:51.721Z,3.10
2018-11-27T10:00:55.981Z,2.77
2018-11-27T10:02:00.069Z,2.50
2018-11-27T10:03:06.066Z,2.60
2018-11-27T10:04:10.354Z,2.22
2018-11-27T10:05:14.779Z,2.02
2018-11-27T10:06:21.868Z,1.85
2018-11-27T10:07:26.042Z,2.30
2018-11-27T10:08:30.387Z,2.12
2018-11-27T10:09:34.424Z,1.80
2018-11-27T10:10:42.196Z,2.02
2018-11-27T10:11:46.445Z,2.00
2018-11-27T10:12:50.752Z,2.40
2018-11-27T10:13:54.953Z,2.22
2018-11-27T10:14:59.161Z,2.77
2018-11-27T10:16:03.471Z,1.95
2018-11-27T10:17:07.873Z,1.82
2018-11-27T10:18:12.202Z,1.80
2018-11-27T10:19:16.687Z,1.80
2018-11-27T10:20:22.289Z,1.90
2018-11-27T10:21:26.869Z,2.30
2018-11-27T10:22:31.229Z,1.87
2018-11-27T10:23:35.742Z,2.30
2018-11-27T10:24:40.035Z,1.80
2018-11-27T10:25:44.324Z,2.20
2018-11-27T10:26:48.804Z,2.00
2018-11-27T10:27:53.103Z,2.12
2018-11-27T10:28:57.438Z,1.90
2018-11-27T10:30:01.675Z,1.65
2018-11-27T10:31:05.864Z,2.05
2018-11-27T10:32:09.992Z,2.02
2018-11-27T10:33:14.346Z,2.40
2018-11-27T10:34:18.687Z,2.30
2018-11-27T10:35:27.896Z,3.05
2018-11-27T10:36:32.249Z,2.87
2018-11-27T10:37:36.491Z,3.70
2018-11-27T10:38:40.645Z,2.85
2018-11-27T10:39:44.765Z,3.15
2018-11-27T10:40:50.026Z,3.17
2018-11-27T10:41:54.161Z,2.60
2018-11-27T10:42:58.406Z,3.00
2018-11-27T10:44:02.570Z,2.75
2018-11-27T10:45:10.648Z,3.17
2018-11-27T10:46:14.925Z,3.05
2018-11-27T10:47:19.214Z,2.60
2018-11-27T10:48:23.653Z,2.80
2018-11-27T10:49:27.805Z,2.75
2018-11-27T10:50:32.037Z,2.70
2018-11-27T10:51:36.253Z,2.60
2018-11-27T10:52:41.767Z,3.02
2018-11-27T10:53:46.004Z,4.78
2018-11-27T10:54:50.829Z,3.20
2018-11-27T10:55:54.577Z,3.10
2018-11-27T10:56:59.041Z,3.08
2018-11-27T10:58:03.093Z,2.90
2018-11-27T10:59:07.497Z,3.10
2018-11-27T11:00:19.378Z,2.75
2018-11-27T11:01:28.787Z,3.17
2018-11-27T11:02:36.258Z,3.98
2018-11-27T11:03:40.423Z,3.33
2018-11-27T11:04:44.756Z,3.85
2018-11-27T11:05:49.203Z,3.42
2018-11-27T11:06:53.570Z,3.80
2018-11-27T11:07:58.109Z,3.60
2018-11-27T11:09:02.865Z,3.40
2018-11-27T11:10:07.533Z,2.80
2018-11-27T11:11:11.759Z,3.70
2018-11-27T11:12:16.137Z,4.22
2018-11-27T11:13:20.471Z,3.90
2018-11-27T11:14:24.675Z,5.08
2018-11-27T11:15:28.979Z,4.42
2018-11-27T11:16:33.426Z,4.62
2018-11-27T11:17:37.835Z,4.97
2018-11-27T11:18:42.181Z,4.37
2018-11-27T11:19:46.489Z,4.20
2018-11-27T11:20:50.690Z,3.67
2018-11-27T11:21:54.996Z,4.25
2018-11-27T11:22:59.446Z,3.90
2018-11-27T11:24:03.754Z,3.83
2018-11-27T11:25:12.406Z,3.80
2018-11-27T11:26:16.656Z,3.58
2018-11-27T11:27:21.862Z,3.67
2018-11-27T11:28:28.827Z,3.90
2018-11-27T11:29:33.054Z,3.20
2018-11-27T11:30:37.345Z,3.58
2018-11-27T11:31:41.442Z,4.30
2018-11-27T11:32:45.757Z,4.87
2018-11-27T11:33:50.303Z,4.78
2018-11-27T11:34:54.450Z,3.98
2018-11-27T11:35:58.745Z,5.03
2018-11-27T11:37:02.777Z,3.25
2018-11-27T11:38:07.488Z,4.05
2018-11-27T11:39:12.001Z,4.05
2018-11-27T11:40:20.534Z,11.80
2018-11-27T11:41:24.693Z,12.98
2018-11-27T11:42:29.053Z,5.97
2018-11-27T11:43:33.332Z,5.83
2018-11-27T11:44:38.077Z,4.75
2018-11-27T11:45:42.442Z,4.80
2018-11-27T11:46:46.810Z,4.80
2018-11-27T11:47:50.948Z,3.98
2018-11-27T11:48:54.994Z,3.70
2018-11-27T11:49:59.270Z,3.12
2018-11-27T11:51:03.702Z,3.83
2018-11-27T11:52:08.529Z,3.00
2018-11-27T11:53:16.725Z,3.33
2018-11-27T11:54:21.685Z,3.20
2018-11-27T11:55:25.733Z,3.65
2018-11-27T11:56:29.941Z,3.52
2018-11-27T11:57:34.118Z,3.83
2018-11-27T11:58:38.299Z,4.03
2018-11-27T11:59:42.399Z,3.92
2018-11-27T12:00:51.487Z,3.72
2018-11-27T12:01:55.784Z,4.47
2018-11-27T12:02:59.977Z,4.37
2018-11-27T12:04:04.090Z,17.15
2018-11-27T12:05:09.449Z,13.85
2018-11-27T12:06:13.763Z,4.00
2018-11-27T12:07:18.034Z,13.00
2018-11-27T12:08:22.060Z,6.00
2018-11-27T12:09:26.073Z,5.72
2018-11-27T12:10:30.205Z,4.40
2018-11-27T12:11:34.466Z,4.75
2018-11-27T12:12:38.926Z,5.10
2018-11-27T12:13:43.235Z,4.65
2018-11-27T12:14:47.301Z,4.10
2018-11-27T12:15:51.555Z,4.17
2018-11-27T12:16:55.866Z,3.85
2018-11-27T12:18:00.132Z,4.37
2018-11-27T12:19:04.336Z,3.75
2018-11-27T12:20:10.595Z,4.00
2018-11-27T12:21:14.852Z,4.08
2018-11-27T12:22:18.950Z,4.42
2018-11-27T12:23:23.354Z,4.30
2018-11-27T12:24:27.577Z,4.50
2018-11-27T12:25:31.801Z,3.95
2018-11-27T12:26:36.032Z,4.37
2018-11-27T12:27:40.412Z,4.40
2018-11-27T12:28:45.192Z,4.72
2018-11-27T12:29:49.430Z,13.83
2018-11-27T12:30:53.639Z,8.03
2018-11-27T12:31:57.917Z,5.28
2018-11-27T12:33:02.110Z,4.53
2018-11-27T12:34:06.406Z,4.12
2018-11-27T12:35:11.456Z,4.17
2018-11-27T12:36:15.725Z,4.80
2018-11-27T12:37:20.123Z,3.80
2018-11-27T12:38:24.352Z,4.08
2018-11-27T12:39:28.536Z,4.58
2018-11-27T12:40:32.846Z,4.72
2018-11-27T12:41:37.017Z,3.95
2018-11-27T12:42:41.109Z,4.75
2018-11-27T12:43:45.254Z,4.58
2018-11-27T12:44:49.476Z,5.00
2018-11-27T12:45:53.577Z,5.28
2018-11-27T12:46:57.714Z,4.55
2018-11-27T12:48:03.043Z,4.62
2018-11-27T12:49:07.201Z,4.53
2018-11-27T12:50:18.685Z,4.75
2018-11-27T12:51:23.006Z,5.00
2018-11-27T12:52:27.214Z,5.15
2018-11-27T12:53:31.406Z,4.20
2018-11-27T12:54:35.615Z,4.10
2018-11-27T12:55:43.180Z,7.35
2018-11-27T12:56:47.332Z,7.92
2018-11-27T12:57:51.557Z,6.05
2018-11-27T12:58:55.726Z,4.10
2018-11-27T13:00:01.106Z,4.37
2018-11-27T13:01:09.505Z,6.80
2018-11-27T13:02:10.494Z,3.95
2018-11-27T13:03:14.664Z,3.80
2018-11-27T13:04:19.060Z,4.00
2018-11-27T13:05:26.501Z,3.30
2018-11-27T13:06:30.590Z,3.45
2018-11-27T13:07:34.778Z,2.70
2018-11-27T13:08:39.060Z,2.75
2018-11-27T13:09:43.343Z,3.17
2018-11-27T13:10:47.615Z,2.92
2018-11-27T13:11:51.841Z,3.10
2018-11-27T13:12:56.192Z,3.75
2018-11-27T13:14:00.393Z,3.92
2018-11-27T13:15:04.817Z,4.10
2018-11-27T13:16:09.153Z,3.80
2018-11-27T13:17:13.969Z,3.65
2018-11-27T13:18:18.277Z,3.87
2018-11-27T13:19:22.579Z,4.30
2018-11-27T13:20:26.585Z,4.97
2018-11-27T13:21:30.896Z,5.17
2018-11-27T13:22:35.090Z,7.30
2018-11-27T13:23:39.427Z,7.90
2018-11-27T13:24:43.589Z,7.08
2018-11-27T13:25:51.710Z,6.42
2018-11-27T13:26:55.896Z,7.28
2018-11-27T13:28:00.877Z,8.25
2018-11-27T13:29:05.141Z,5.35
2018-11-27T13:30:13.537Z,5.15
2018-11-27T13:31:19.152Z,5.55
2018-11-27T13:32:23.145Z,5.42
2018-11-27T13:33:35.060Z,4.92
2018-11-27T13:34:40.449Z,5.05
2018-11-27T13:35:44.819Z,5.17
2018-11-27T13:36:49.023Z,5.10
2018-11-27T13:37:53.167Z,5.47
2018-11-27T13:39:07.334Z,5.78
2018-11-27T13:40:12.576Z,5.62
2018-11-27T13:41:16.746Z,7.12
2018-11-27T13:42:20.903Z,5.87
2018-11-27T13:43:27.412Z,6.75
2018-11-27T13:44:32.973Z,5.70
2018-11-27T13:45:37.845Z,5.95
2018-11-27T13:46:42.053Z,5.60
2018-11-27T13:47:46.248Z,5.95
2018-11-27T13:48:52.600Z,6.47
2018-11-27T13:49:56.813Z,5.53
2018-11-27T13:51:01.160Z,5.90
2018-11-27T13:52:05.788Z,5.08
2018-11-27T13:53:10.125Z,7.53
2018-11-27T13:54:14.278Z,6.78
2018-11-27T13:55:20.655Z,7.10
2018-11-27T13:56:24.818Z,8.35
2018-11-27T13:57:28.977Z,7.42
2018-11-27T13:58:33.208Z,8.48
2018-11-27T13:59:38.517Z,8.88
2018-11-27T14:00:42.925Z,8.23
2018-11-27T14:01:47.306Z,9.08
2018-11-27T14:02:56.241Z,7.65
2018-11-27T14:04:00.436Z,8.83
2018-11-27T14:05:05.006Z,8.55
2018-11-27T14:06:12.243Z,7.53
2018-11-27T14:07:16.389Z,6.78
2018-11-27T14:08:28.292Z,6.45
2018-11-27T14:09:32.609Z,6.70
2018-11-27T14:10:38.900Z,6.25
2018-11-27T14:11:43.136Z,6.17
2018-11-27T14:12:47.412Z,6.25
2018-11-27T14:13:51.575Z,5.37
2018-11-27T14:14:55.744Z,5.47
2018-11-27T14:16:00.018Z,4.70
2018-11-27T14:17:04.454Z,5.00